Coleta, Illinois
Current Conditions -  °F | °C
As of 2:55 PM on Friday 31 Oct 2014 (Local Time) from KSQI Reporting Station
Scattered Clouds Scattered Clouds  
Wind Chill: 35°   Ceiling: Unl
Heat Index: 43°   Visibility: 10mi
Dew Point: 19°   Wind: 18mph
Humidity: 39%   Direction: 10°N
Pressure: 30.32"   Gusts: 29mph
Location:  41.91°N, 89.8°W
Report Text: KSQI 311955Z AUTO 01016G25KT 10SM SCT050 06/M07 A3032 RMK AO1
Loading
Personal Weather Stations






























Interactive Weather Map
Tropical Storm Tracking
New forecast layout! Learn more

10-Day Weather Forecast

Advertisements
Track Severe Weather on mobile